sensor_id;sensor_type;location;lat;lon;timestamp;temperature;humidity
66213;SHT31;53015;50.046;8.238;2023-04-01T00:00:58;11.38;78.94
66213;SHT31;53015;50.046;8.238;2023-04-01T00:03:25;11.35;78.90
66213;SHT31;53015;50.046;8.238;2023-04-01T00:05:52;11.37;80.08
66213;SHT31;53015;50.046;8.238;2023-04-01T00:08:18;11.28;80.10
66213;SHT31;53015;50.046;8.238;2023-04-01T00:10:44;11.44;79.73
66213;SHT31;53015;50.046;8.238;2023-04-01T00:13:10;11.42;79.50
66213;SHT31;53015;50.046;8.238;2023-04-01T00:15:35;11.35;79.02
66213;SHT31;53015;50.046;8.238;2023-04-01T00:18:01;11.28;79.35
66213;SHT31;53015;50.046;8.238;2023-04-01T00:20:27;11.35;79.96
66213;SHT31;53015;50.046;8.238;2023-04-01T00:22:55;11.34;79.43
66213;SHT31;53015;50.046;8.238;2023-04-01T00:25:20;11.32;80.02
66213;SHT31;53015;50.046;8.238;2023-04-01T00:27:46;11.31;79.26
66213;SHT31;53015;50.046;8.238;2023-04-01T00:30:11;11.27;79.61
66213;SHT31;53015;50.046;8.238;2023-04-01T00:32:37;11.26;80.76
66213;SHT31;53015;50.046;8.238;2023-04-01T00:35:03;11.24;80.22
66213;SHT31;53015;50.046;8.238;2023-04-01T00:37:29;11.28;79.49
66213;SHT31;53015;50.046;8.238;2023-04-01T00:39:56;11.20;79.78
66213;SHT31;53015;50.046;8.238;2023-04-01T00:42:22;11.13;80.31
66213;SHT31;53015;50.046;8.238;2023-04-01T00:44:50;11.11;80.06
66213;SHT31;53015;50.046;8.238;2023-04-01T00:47:17;11.18;79.98
66213;SHT31;53015;50.046;8.238;2023-04-01T00:49:45;11.18;80.18
66213;SHT31;53015;50.046;8.238;2023-04-01T00:52:12;11.11;80.46
66213;SHT31;53015;50.046;8.238;2023-04-01T00:54:41;11.23;79.42
66213;SHT31;53015;50.046;8.238;2023-04-01T00:57:12;11.13;79.42
66213;SHT31;53015;50.046;8.238;2023-04-01T00:59:42;11.14;79.05
66213;SHT31;53015;50.046;8.238;2023-04-01T01:02:10;11.13;79.05
66213;SHT31;53015;50.046;8.238;2023-04-01T01:04:36;11.06;78.73
66213;SHT31;53015;50.046;8.238;2023-04-01T01:07:12;11.11;78.76
66213;SHT31;53015;50.046;8.238;2023-04-01T01:09:48;11.10;79.64
66213;SHT31;53015;50.046;8.238;2023-04-01T01:12:21;11.17;78.62
66213;SHT31;53015;50.046;8.238;2023-04-01T01:14:54;11.14;78.81
66213;SHT31;53015;50.046;8.238;2023-04-01T01:17:29;11.17;78.65
66213;SHT31;53015;50.046;8.238;2023-04-01T01:20:31;11.10;78.81
66213;SHT31;53015;50.046;8.238;2023-04-01T01:23:09;11.17;78.96
66213;SHT31;53015;50.046;8.238;2023-04-01T01:25:45;11.13;78.40
66213;SHT31;53015;50.046;8.238;2023-04-01T01:28:27;11.07;79.20
66213;SHT31;53015;50.046;8.238;2023-04-01T01:31:03;11.10;79.18
66213;SHT31;53015;50.046;8.238;2023-04-01T01:33:56;11.04;79.20
66213;SHT31;53015;50.046;8.238;2023-04-01T01:36:28;11.03;79.58
66213;SHT31;53015;50.046;8.238;2023-04-01T01:38:56;11.01;79.78
66213;SHT31;53015;50.046;8.238;2023-04-01T01:41:23;11.10;79.41
66213;SHT31;53015;50.046;8.238;2023-04-01T01:43:50;11.10;79.15
66213;SHT31;53015;50.046;8.238;2023-04-01T01:46:21;11.03;79.39
66213;SHT31;53015;50.046;8.238;2023-04-01T01:48:48;11.04;78.94
66213;SHT31;53015;50.046;8.238;2023-04-01T01:51:15;11.00;78.81
66213;SHT31;53015;50.046;8.238;2023-04-01T01:53:42;11.03;79.36
66213;SHT31;53015;50.046;8.238;2023-04-01T01:56:10;11.01;79.11
66213;SHT31;53015;50.046;8.238;2023-04-01T01:58:37;11.01;79.23
66213;SHT31;53015;50.046;8.238;2023-04-01T02:01:06;11.03;79.34
66213;SHT31;53015;50.046;8.238;2023-04-01T02:03:35;10.99;78.93
66213;SHT31;53015;50.046;8.238;2023-04-01T02:06:03;10.97;79.38
66213;SHT31;53015;50.046;8.238;2023-04-01T02:08:34;10.97;79.44
66213;SHT31;53015;50.046;8.238;2023-04-01T02:11:03;10.90;80.04
66213;SHT31;53015;50.046;8.238;2023-04-01T02:13:34;10.90;79.42
66213;SHT31;53015;50.046;8.238;2023-04-01T02:16:06;10.90;79.34
66213;SHT31;53015;50.046;8.238;2023-04-01T02:18:33;10.79;80.24
66213;SHT31;53015;50.046;8.238;2023-04-01T02:21:00;10.89;79.79
66213;SHT31;53015;50.046;8.238;2023-04-01T02:23:26;10.89;79.74
66213;SHT31;53015;50.046;8.238;2023-04-01T02:25:53;10.93;80.29
66213;SHT31;53015;50.046;8.238;2023-04-01T02:28:20;10.84;79.53
66213;SHT31;53015;50.046;8.238;2023-04-01T02:30:48;10.73;80.10
66213;SHT31;53015;50.046;8.238;2023-04-01T02:33:15;10.82;80.40
66213;SHT31;53015;50.046;8.238;2023-04-01T02:35:41;10.82;80.95
66213;SHT31;53015;50.046;8.238;2023-04-01T02:38:06;10.73;80.61
66213;SHT31;53015;50.046;8.238;2023-04-01T02:40:42;10.77;80.09
66213;SHT31;53015;50.046;8.238;2023-04-01T02:43:08;10.77;80.10
66213;SHT31;53015;50.046;8.238;2023-04-01T02:45:34;10.77;80.71
66213;SHT31;53015;50.046;8.238;2023-04-01T02:48:00;10.73;81.46
66213;SHT31;53015;50.046;8.238;2023-04-01T02:50:25;10.69;81.13
66213;SHT31;53015;50.046;8.238;2023-04-01T02:52:51;10.77;81.20
66213;SHT31;53015;50.046;8.238;2023-04-01T02:55:16;10.73;81.22
66213;SHT31;53015;50.046;8.238;2023-04-01T02:57:42;10.69;81.91
66213;SHT31;53015;50.046;8.238;2023-04-01T03:00:08;10.66;82.59
66213;SHT31;53015;50.046;8.238;2023-04-01T03:02:35;10.62;82.53
66213;SHT31;53015;50.046;8.238;2023-04-01T03:05:01;10.61;82.56
66213;SHT31;53015;50.046;8.238;2023-04-01T03:07:26;10.61;82.80
66213;SHT31;53015;50.046;8.238;2023-04-01T03:09:52;10.65;82.25
66213;SHT31;53015;50.046;8.238;2023-04-01T03:12:17;10.65;81.99
66213;SHT31;53015;50.046;8.238;2023-04-01T03:14:43;10.68;82.28
66213;SHT31;53015;50.046;8.238;2023-04-01T03:17:08;10.68;82.07
66213;SHT31;53015;50.046;8.238;2023-04-01T03:19:35;10.66;81.91
66213;SHT31;53015;50.046;8.238;2023-04-01T03:22:01;10.66;82.33
66213;SHT31;53015;50.046;8.238;2023-04-01T03:24:26;10.62;82.46
66213;SHT31;53015;50.046;8.238;2023-04-01T03:26:52;10.66;82.71
66213;SHT31;53015;50.046;8.238;2023-04-01T03:29:17;10.65;82.39
66213;SHT31;53015;50.046;8.238;2023-04-01T03:31:43;10.62;82.38
66213;SHT31;53015;50.046;8.238;2023-04-01T03:34:08;10.59;82.46
66213;SHT31;53015;50.046;8.238;2023-04-01T03:36:35;10.59;82.42
66213;SHT31;53015;50.046;8.238;2023-04-01T03:39:01;10.59;82.42
66213;SHT31;53015;50.046;8.238;2023-04-01T03:41:26;10.56;82.30
66213;SHT31;53015;50.046;8.238;2023-04-01T03:43:53;10.56;82.53
66213;SHT31;53015;50.046;8.238;2023-04-01T03:46:19;10.68;82.47
66213;SHT31;53015;50.046;8.238;2023-04-01T03:48:45;10.59;82.63
66213;SHT31;53015;50.046;8.238;2023-04-01T03:51:10;10.61;82.64
66213;SHT31;53015;50.046;8.238;2023-04-01T03:53:37;10.63;82.59
66213;SHT31;53015;50.046;8.238;2023-04-01T03:56:04;10.61;82.98
66213;SHT31;53015;50.046;8.238;2023-04-01T03:58:29;10.61;83.04
66213;SHT31;53015;50.046;8.238;2023-04-01T04:00:55;10.56;82.95
66213;SHT31;53015;50.046;8.238;2023-04-01T04:03:20;10.58;83.10
66213;SHT31;53015;50.046;8.238;2023-04-01T04:05:46;10.62;82.78
66213;SHT31;53015;50.046;8.238;2023-04-01T04:08:12;10.62;83.02
66213;SHT31;53015;50.046;8.238;2023-04-01T04:10:39;10.63;82.91
66213;SHT31;53015;50.046;8.238;2023-04-01T04:13:04;10.69;82.93
66213;SHT31;53015;50.046;8.238;2023-04-01T04:15:30;10.72;82.73
66213;SHT31;53015;50.046;8.238;2023-04-01T04:17:55;10.73;83.12
66213;SHT31;53015;50.046;8.238;2023-04-01T04:20:21;10.62;82.82
66213;SHT31;53015;50.046;8.238;2023-04-01T04:22:46;10.69;83.04
66213;SHT31;53015;50.046;8.238;2023-04-01T04:25:12;10.75;82.52
66213;SHT31;53015;50.046;8.238;2023-04-01T04:27:39;10.73;82.48
66213;SHT31;53015;50.046;8.238;2023-04-01T04:30:06;10.68;82.97
66213;SHT31;53015;50.046;8.238;2023-04-01T04:32:31;10.66;83.40
66213;SHT31;53015;50.046;8.238;2023-04-01T04:34:57;10.66;82.80
66213;SHT31;53015;50.046;8.238;2023-04-01T04:37:22;10.66;82.88
66213;SHT31;53015;50.046;8.238;2023-04-01T04:39:48;10.58;83.17
66213;SHT31;53015;50.046;8.238;2023-04-01T04:42:13;10.59;82.56
66213;SHT31;53015;50.046;8.238;2023-04-01T04:44:40;10.66;82.56
66213;SHT31;53015;50.046;8.238;2023-04-01T04:47:06;10.62;83.01
66213;SHT31;53015;50.046;8.238;2023-04-01T04:49:32;10.62;83.33
66213;SHT31;53015;50.046;8.238;2023-04-01T04:51:57;10.55;83.54
66213;SHT31;53015;50.046;8.238;2023-04-01T04:54:23;10.66;82.94
66213;SHT31;53015;50.046;8.238;2023-04-01T04:56:50;10.58;83.36
66213;SHT31;53015;50.046;8.238;2023-04-01T04:59:16;10.62;83.39
66213;SHT31;53015;50.046;8.238;2023-04-01T05:01:46;10.62;83.04
66213;SHT31;53015;50.046;8.238;2023-04-01T05:04:12;10.56;83.00
66213;SHT31;53015;50.046;8.238;2023-04-01T05:06:37;10.54;82.82
66213;SHT31;53015;50.046;8.238;2023-04-01T05:09:03;10.56;83.38
66213;SHT31;53015;50.046;8.238;2023-04-01T05:11:28;10.56;82.94
66213;SHT31;53015;50.046;8.238;2023-04-01T05:13:54;10.55;83.71
66213;SHT31;53015;50.046;8.238;2023-04-01T05:16:20;10.55;83.23
66213;SHT31;53015;50.046;8.238;2023-04-01T05:18:47;10.54;82.90
66213;SHT31;53015;50.046;8.238;2023-04-01T05:21:14;10.59;83.05
66213;SHT31;53015;50.046;8.238;2023-04-01T05:23:40;10.59;82.36
66213;SHT31;53015;50.046;8.238;2023-04-01T05:26:07;10.58;82.90
66213;SHT31;53015;50.046;8.238;2023-04-01T05:28:33;10.63;82.40
66213;SHT31;53015;50.046;8.238;2023-04-01T05:30:59;10.62;82.23
66213;SHT31;53015;50.046;8.238;2023-04-01T05:33:25;10.61;82.62
66213;SHT31;53015;50.046;8.238;2023-04-01T05:35:53;10.62;82.41
66213;SHT31;53015;50.046;8.238;2023-04-01T05:38:18;10.61;82.46
66213;SHT31;53015;50.046;8.238;2023-04-01T05:40:44;10.61;82.01
66213;SHT31;53015;50.046;8.238;2023-04-01T05:43:09;10.59;82.04
66213;SHT31;53015;50.046;8.238;2023-04-01T05:45:35;10.65;81.82
66213;SHT31;53015;50.046;8.238;2023-04-01T05:48:00;10.66;81.89
66213;SHT31;53015;50.046;8.238;2023-04-01T05:50:25;10.62;81.54
66213;SHT31;53015;50.046;8.238;2023-04-01T05:52:52;10.66;81.09
66213;SHT31;53015;50.046;8.238;2023-04-01T05:55:18;10.65;81.36
66213;SHT31;53015;50.046;8.238;2023-04-01T05:57:45;10.71;81.34
66213;SHT31;53015;50.046;8.238;2023-04-01T06:00:11;10.71;81.23
66213;SHT31;53015;50.046;8.238;2023-04-01T06:02:37;10.63;82.04
66213;SHT31;53015;50.046;8.238;2023-04-01T06:05:12;10.72;81.13
66213;SHT31;53015;50.046;8.238;2023-04-01T06:07:38;10.71;81.16
66213;SHT31;53015;50.046;8.238;2023-04-01T06:10:12;10.73;81.19
66213;SHT31;53015;50.046;8.238;2023-04-01T06:12:47;10.68;82.03
66213;SHT31;53015;50.046;8.238;2023-04-01T06:21:03;10.79;80.87
66213;SHT31;53015;50.046;8.238;2023-04-01T06:23:41;10.77;81.20
66213;SHT31;53015;50.046;8.238;2023-04-01T06:26:18;10.80;80.81
66213;SHT31;53015;50.046;8.238;2023-04-01T06:29:06;10.77;80.78
66213;SHT31;53015;50.046;8.238;2023-04-01T06:31:51;10.83;80.85
66213;SHT31;53015;50.046;8.238;2023-04-01T06:34:43;10.83;81.19
66213;SHT31;53015;50.046;8.238;2023-04-01T06:37:28;10.77;81.88
66213;SHT31;53015;50.046;8.238;2023-04-01T06:40:12;10.71;81.82
66213;SHT31;53015;50.046;8.238;2023-04-01T06:42:52;10.76;82.31
66213;SHT31;53015;50.046;8.238;2023-04-01T06:45:31;10.68;82.40
66213;SHT31;53015;50.046;8.238;2023-04-01T06:48:19;10.71;83.02
66213;SHT31;53015;50.046;8.238;2023-04-01T06:50:54;10.66;83.51
66213;SHT31;53015;50.046;8.238;2023-04-01T06:53:29;10.72;84.20
66213;SHT31;53015;50.046;8.238;2023-04-01T06:56:02;10.71;84.57
66213;SHT31;53015;50.046;8.238;2023-04-01T06:58:34;10.59;84.04
66213;SHT31;53015;50.046;8.238;2023-04-01T07:01:02;10.65;85.02
66213;SHT31;53015;50.046;8.238;2023-04-01T07:03:32;10.68;85.52
66213;SHT31;53015;50.046;8.238;2023-04-01T07:06:03;10.68;86.26
66213;SHT31;53015;50.046;8.238;2023-04-01T07:08:29;10.75;86.53
66213;SHT31;53015;50.046;8.238;2023-04-01T07:10:58;10.65;86.28
66213;SHT31;53015;50.046;8.238;2023-04-01T07:13:30;10.59;86.54
66213;SHT31;53015;50.046;8.238;2023-04-01T07:16:05;10.68;86.81
66213;SHT31;53015;50.046;8.238;2023-04-01T07:18:36;10.72;87.58
66213;SHT31;53015;50.046;8.238;2023-04-01T07:21:02;10.69;86.84
66213;SHT31;53015;50.046;8.238;2023-04-01T07:23:32;10.69;87.01
66213;SHT31;53015;50.046;8.238;2023-04-01T07:26:00;10.77;86.75
66213;SHT31;53015;50.046;8.238;2023-04-01T07:28:27;10.80;86.42
66213;SHT31;53015;50.046;8.238;2023-04-01T07:31:05;10.97;86.80
66213;SHT31;53015;50.046;8.238;2023-04-01T07:33:36;11.14;86.07
66213;SHT31;53015;50.046;8.238;2023-04-01T07:36:09;11.26;84.74
66213;SHT31;53015;50.046;8.238;2023-04-01T07:38:48;11.38;83.73
66213;SHT31;53015;50.046;8.238;2023-04-01T07:41:23;11.57;83.70
66213;SHT31;53015;50.046;8.238;2023-04-01T07:43:59;11.82;83.88
66213;SHT31;53015;50.046;8.238;2023-04-01T07:46:47;11.82;83.95
66213;SHT31;53015;50.046;8.238;2023-04-01T07:49:17;11.83;82.68
66213;SHT31;53015;50.046;8.238;2023-04-01T07:51:51;11.78;82.20
66213;SHT31;53015;50.046;8.238;2023-04-01T07:54:26;11.55;82.11
66213;SHT31;53015;50.046;8.238;2023-04-01T07:57:00;11.44;82.59
66213;SHT31;53015;50.046;8.238;2023-04-01T07:59:27;11.48;83.85
66213;SHT31;53015;50.046;8.238;2023-04-01T08:02:02;11.42;83.59
66213;SHT31;53015;50.046;8.238;2023-04-01T08:04:48;11.39;84.79
66213;SHT31;53015;50.046;8.238;2023-04-01T08:07:19;11.31;84.70
66213;SHT31;53015;50.046;8.238;2023-04-01T08:09:50;11.23;85.39
66213;SHT31;53015;50.046;8.238;2023-04-01T08:12:24;11.09;85.81
66213;SHT31;53015;50.046;8.238;2023-04-01T08:14:59;11.09;86.68
66213;SHT31;53015;50.046;8.238;2023-04-01T08:17:32;11.14;87.35
66213;SHT31;53015;50.046;8.238;2023-04-01T08:20:11;11.07;88.16
66213;SHT31;53015;50.046;8.238;2023-04-01T08:22:42;11.03;88.30
66213;SHT31;53015;50.046;8.238;2023-04-01T08:25:11;10.99;88.93
66213;SHT31;53015;50.046;8.238;2023-04-01T08:27:43;11.18;88.61
66213;SHT31;53015;50.046;8.238;2023-04-01T08:30:18;11.23;88.62
66213;SHT31;53015;50.046;8.238;2023-04-01T08:32:47;11.24;87.60
66213;SHT31;53015;50.046;8.238;2023-04-01T08:35:20;11.20;87.83
66213;SHT31;53015;50.046;8.238;2023-04-01T08:37:50;11.16;88.74
66213;SHT31;53015;50.046;8.238;2023-04-01T08:40:35;11.14;88.72
66213;SHT31;53015;50.046;8.238;2023-04-01T08:43:09;11.23;88.97
66213;SHT31;53015;50.046;8.238;2023-04-01T08:46:00;11.35;88.32
66213;SHT31;53015;50.046;8.238;2023-04-01T08:52:05;11.48;88.31
66213;SHT31;53015;50.046;8.238;2023-04-01T08:54:48;11.39;88.69
66213;SHT31;53015;50.046;8.238;2023-04-01T08:57:32;11.42;88.92
66213;SHT31;53015;50.046;8.238;2023-04-01T09:00:09;11.38;89.59
66213;SHT31;53015;50.046;8.238;2023-04-01T09:05:55;11.45;88.83
66213;SHT31;53015;50.046;8.238;2023-04-01T09:08:38;11.45;89.30
66213;SHT31;53015;50.046;8.238;2023-04-01T09:11:12;11.45;88.99
66213;SHT31;53015;50.046;8.238;2023-04-01T09:13:56;11.59;89.57
66213;SHT31;53015;50.046;8.238;2023-04-01T09:16:41;11.57;89.77
66213;SHT31;53015;50.046;8.238;2023-04-01T09:19:21;11.61;89.19
66213;SHT31;53015;50.046;8.238;2023-04-01T09:21:58;11.76;89.66
66213;SHT31;53015;50.046;8.238;2023-04-01T09:24:41;11.76;89.93
66213;SHT31;53015;50.046;8.238;2023-04-01T09:27:19;11.89;89.43
66213;SHT31;53015;50.046;8.238;2023-04-01T09:33:31;11.92;89.99
66213;SHT31;53015;50.046;8.238;2023-04-01T09:36:04;11.87;90.15
66213;SHT31;53015;50.046;8.238;2023-04-01T09:38:44;11.92;90.04
66213;SHT31;53015;50.046;8.238;2023-04-01T09:41:21;11.97;89.98
66213;SHT31;53015;50.046;8.238;2023-04-01T09:44:00;12.13;89.37
66213;SHT31;53015;50.046;8.238;2023-04-01T09:46:36;12.23;88.76
66213;SHT31;53015;50.046;8.238;2023-04-01T09:49:22;12.37;88.26
66213;SHT31;53015;50.046;8.238;2023-04-01T09:52:07;12.65;87.91
66213;SHT31;53015;50.046;8.238;2023-04-01T09:54:49;12.49;87.69
66213;SHT31;53015;50.046;8.238;2023-04-01T09:57:44;12.47;87.97
66213;SHT31;53015;50.046;8.238;2023-04-01T10:01:01;12.42;89.64
66213;SHT31;53015;50.046;8.238;2023-04-01T10:06:54;12.58;88.84
66213;SHT31;53015;50.046;8.238;2023-04-01T10:16:27;12.72;88.13
66213;SHT31;53015;50.046;8.238;2023-04-01T10:19:14;12.57;87.90
66213;SHT31;53015;50.046;8.238;2023-04-01T10:22:17;12.54;88.44
66213;SHT31;53015;50.046;8.238;2023-04-01T10:25:05;12.54;88.83
66213;SHT31;53015;50.046;8.238;2023-04-01T10:30:42;12.68;88.87
66213;SHT31;53015;50.046;8.238;2023-04-01T10:33:46;12.91;88.24
66213;SHT31;53015;50.046;8.238;2023-04-01T10:36:34;13.07;88.36
66213;SHT31;53015;50.046;8.238;2023-04-01T10:39:26;13.07;87.98
66213;SHT31;53015;50.046;8.238;2023-04-01T10:42:21;13.07;87.48
66213;SHT31;53015;50.046;8.238;2023-04-01T10:45:33;13.12;88.16
66213;SHT31;53015;50.046;8.238;2023-04-01T10:48:27;13.04;87.96
66213;SHT31;53015;50.046;8.238;2023-04-01T10:54:17;13.55;86.51
66213;SHT31;53015;50.046;8.238;2023-04-01T10:57:01;13.69;85.75
66213;SHT31;53015;50.046;8.238;2023-04-01T11:00:04;13.78;86.24
66213;SHT31;53015;50.046;8.238;2023-04-01T11:02:59;14.06;85.21
66213;SHT31;53015;50.046;8.238;2023-04-01T11:06:04;14.13;85.66
66213;SHT31;53015;50.046;8.238;2023-04-01T11:15:06;14.20;84.97
66213;SHT31;53015;50.046;8.238;2023-04-01T11:18:17;14.06;84.36
66213;SHT31;53015;50.046;8.238;2023-04-01T11:21:14;13.86;84.79
66213;SHT31;53015;50.046;8.238;2023-04-01T11:23:51;13.86;84.65
66213;SHT31;53015;50.046;8.238;2023-04-01T11:26:32;13.88;85.79
66213;SHT31;53015;50.046;8.238;2023-04-01T11:29:19;13.92;84.95
66213;SHT31;53015;50.046;8.238;2023-04-01T11:31:59;13.62;84.46
66213;SHT31;53015;50.046;8.238;2023-04-01T11:34:47;13.69;84.67
66213;SHT31;53015;50.046;8.238;2023-04-01T11:37:24;13.68;86.01
66213;SHT31;53015;50.046;8.238;2023-04-01T11:40:02;13.60;85.76
66213;SHT31;53015;50.046;8.238;2023-04-01T11:42:35;13.48;85.92
66213;SHT31;53015;50.046;8.238;2023-04-01T11:45:13;13.46;85.78
66213;SHT31;53015;50.046;8.238;2023-04-01T11:48:00;13.43;86.40
66213;SHT31;53015;50.046;8.238;2023-04-01T11:50:38;13.37;85.75
66213;SHT31;53015;50.046;8.238;2023-04-01T11:53:18;13.43;86.39
66213;SHT31;53015;50.046;8.238;2023-04-01T11:55:55;13.24;87.14
66213;SHT31;53015;50.046;8.238;2023-04-01T11:58:35;13.13;87.62
66213;SHT31;53015;50.046;8.238;2023-04-01T12:01:13;13.22;87.61
66213;SHT31;53015;50.046;8.238;2023-04-01T12:04:04;13.06;88.03
66213;SHT31;53015;50.046;8.238;2023-04-01T12:06:37;12.88;88.99
66213;SHT31;53015;50.046;8.238;2023-04-01T12:09:12;12.86;89.25
66213;SHT31;53015;50.046;8.238;2023-04-01T12:11:49;12.75;89.01
66213;SHT31;53015;50.046;8.238;2023-04-01T12:14:21;12.89;88.60
66213;SHT31;53015;50.046;8.238;2023-04-01T12:16:56;12.99;88.90
66213;SHT31;53015;50.046;8.238;2023-04-01T12:19:33;13.12;89.59
66213;SHT31;53015;50.046;8.238;2023-04-01T12:22:33;13.26;88.42
66213;SHT31;53015;50.046;8.238;2023-04-01T12:25:07;13.23;87.66
66213;SHT31;53015;50.046;8.238;2023-04-01T12:27:45;13.40;88.74
66213;SHT31;53015;50.046;8.238;2023-04-01T12:30:39;13.53;88.73
66213;SHT31;53015;50.046;8.238;2023-04-01T12:33:23;13.55;88.38
66213;SHT31;53015;50.046;8.238;2023-04-01T12:36:02;13.48;88.18
66213;SHT31;53015;50.046;8.238;2023-04-01T12:38:41;13.61;88.31
66213;SHT31;53015;50.046;8.238;2023-04-01T12:41:09;13.54;88.79
66213;SHT31;53015;50.046;8.238;2023-04-01T12:44:08;13.64;89.01
66213;SHT31;53015;50.046;8.238;2023-04-01T12:46:47;13.71;88.65
66213;SHT31;53015;50.046;8.238;2023-04-01T12:49:42;13.51;88.80
66213;SHT31;53015;50.046;8.238;2023-04-01T12:52:14;13.61;88.77
66213;SHT31;53015;50.046;8.238;2023-04-01T12:58:06;13.78;88.23
66213;SHT31;53015;50.046;8.238;2023-04-01T13:00:48;13.81;87.76
66213;SHT31;53015;50.046;8.238;2023-04-01T13:03:32;13.78;87.86
66213;SHT31;53015;50.046;8.238;2023-04-01T13:06:20;13.82;87.60
66213;SHT31;53015;50.046;8.238;2023-04-01T13:08:53;13.81;86.88
66213;SHT31;53015;50.046;8.238;2023-04-01T13:11:34;13.58;88.10
66213;SHT31;53015;50.046;8.238;2023-04-01T13:14:17;13.43;88.32
66213;SHT31;53015;50.046;8.238;2023-04-01T13:16:53;13.37;88.49
66213;SHT31;53015;50.046;8.238;2023-04-01T13:19:25;13.23;89.47
66213;SHT31;53015;50.046;8.238;2023-04-01T13:22:00;13.26;90.43
66213;SHT31;53015;50.046;8.238;2023-04-01T13:24:40;13.14;89.40
66213;SHT31;53015;50.046;8.238;2023-04-01T13:27:14;13.04;90.58
66213;SHT31;53015;50.046;8.238;2023-04-01T13:29:47;12.84;90.03
66213;SHT31;53015;50.046;8.238;2023-04-01T13:32:23;12.82;90.15
66213;SHT31;53015;50.046;8.238;2023-04-01T13:35:03;12.76;90.56
66213;SHT31;53015;50.046;8.238;2023-04-01T13:37:47;12.67;89.63
66213;SHT31;53015;50.046;8.238;2023-04-01T13:40:26;12.59;90.07
66213;SHT31;53015;50.046;8.238;2023-04-01T13:42:57;12.59;90.61
66213;SHT31;53015;50.046;8.238;2023-04-01T13:45:27;12.62;90.98
66213;SHT31;53015;50.046;8.238;2023-04-01T13:48:27;12.44;90.93
66213;SHT31;53015;50.046;8.238;2023-04-01T13:51:10;12.21;91.85
66213;SHT31;53015;50.046;8.238;2023-04-01T13:54:00;12.41;92.67
66213;SHT31;53015;50.046;8.238;2023-04-01T13:56:42;12.33;93.32
66213;SHT31;53015;50.046;8.238;2023-04-01T14:02:34;12.21;92.77
66213;SHT31;53015;50.046;8.238;2023-04-01T14:05:20;12.21;92.87
66213;SHT31;53015;50.046;8.238;2023-04-01T14:07:58;12.27;91.69
66213;SHT31;53015;50.046;8.238;2023-04-01T14:10:31;12.40;91.99
66213;SHT31;53015;50.046;8.238;2023-04-01T14:13:06;12.40;90.79
66213;SHT31;53015;50.046;8.238;2023-04-01T14:15:41;12.51;91.40
66213;SHT31;53015;50.046;8.238;2023-04-01T14:18:39;12.48;91.85
66213;SHT31;53015;50.046;8.238;2023-04-01T14:21:23;12.67;90.84
66213;SHT31;53015;50.046;8.238;2023-04-01T14:27:00;12.59;90.29
66213;SHT31;53015;50.046;8.238;2023-04-01T14:29:35;12.57;90.65
66213;SHT31;53015;50.046;8.238;2023-04-01T14:32:10;12.44;90.76
66213;SHT31;53015;50.046;8.238;2023-04-01T14:34:53;12.37;90.65
66213;SHT31;53015;50.046;8.238;2023-04-01T14:37:40;12.36;91.28
66213;SHT31;53015;50.046;8.238;2023-04-01T14:40:27;12.42;91.11
66213;SHT31;53015;50.046;8.238;2023-04-01T14:43:03;12.45;91.86
66213;SHT31;53015;50.046;8.238;2023-04-01T14:45:54;12.57;92.09
66213;SHT31;53015;50.046;8.238;2023-04-01T14:48:30;12.68;91.29
66213;SHT31;53015;50.046;8.238;2023-04-01T14:51:03;12.58;90.05
66213;SHT31;53015;50.046;8.238;2023-04-01T14:53:33;12.62;89.59
66213;SHT31;53015;50.046;8.238;2023-04-01T14:56:01;12.54;89.84
66213;SHT31;53015;50.046;8.238;2023-04-01T14:58:42;12.58;89.97
66213;SHT31;53015;50.046;8.238;2023-04-01T15:01:20;12.74;90.39
66213;SHT31;53015;50.046;8.238;2023-04-01T15:03:54;12.96;89.46
66213;SHT31;53015;50.046;8.238;2023-04-01T15:06:39;13.20;88.89
66213;SHT31;53015;50.046;8.238;2023-04-01T15:09:08;13.41;89.60
66213;SHT31;53015;50.046;8.238;2023-04-01T15:11:50;13.44;89.08
66213;SHT31;53015;50.046;8.238;2023-04-01T15:14:36;13.58;87.17
66213;SHT31;53015;50.046;8.238;2023-04-01T15:17:22;13.99;87.53
66213;SHT31;53015;50.046;8.238;2023-04-01T15:20:02;14.12;85.64
66213;SHT31;53015;50.046;8.238;2023-04-01T15:22:45;13.89;85.79
66213;SHT31;53015;50.046;8.238;2023-04-01T15:25:35;13.58;86.33
66213;SHT31;53015;50.046;8.238;2023-04-01T15:28:07;13.47;84.93
66213;SHT31;53015;50.046;8.238;2023-04-01T15:30:38;13.30;85.94
66213;SHT31;53015;50.046;8.238;2023-04-01T15:33:24;13.16;87.78
66213;SHT31;53015;50.046;8.238;2023-04-01T15:35:58;13.10;88.22
66213;SHT31;53015;50.046;8.238;2023-04-01T15:38:33;13.14;88.30
66213;SHT31;53015;50.046;8.238;2023-04-01T15:41:07;13.07;89.08
66213;SHT31;53015;50.046;8.238;2023-04-01T15:43:40;13.07;88.91
66213;SHT31;53015;50.046;8.238;2023-04-01T15:46:24;13.16;88.42
66213;SHT31;53015;50.046;8.238;2023-04-01T15:49:08;13.04;89.27
66213;SHT31;53015;50.046;8.238;2023-04-01T15:51:54;13.03;88.10
66213;SHT31;53015;50.046;8.238;2023-04-01T15:54:37;12.93;88.96
66213;SHT31;53015;50.046;8.238;2023-04-01T15:57:14;12.74;89.90
66213;SHT31;53015;50.046;8.238;2023-04-01T15:59:57;12.58;88.67
66213;SHT31;53015;50.046;8.238;2023-04-01T16:02:31;12.42;89.65
66213;SHT31;53015;50.046;8.238;2023-04-01T16:05:04;12.57;90.22
66213;SHT31;53015;50.046;8.238;2023-04-01T16:07:45;12.71;90.02
66213;SHT31;53015;50.046;8.238;2023-04-01T16:10:23;12.72;90.70
66213;SHT31;53015;50.046;8.238;2023-04-01T16:13:01;12.59;90.48
66213;SHT31;53015;50.046;8.238;2023-04-01T16:15:35;12.52;90.46
66213;SHT31;53015;50.046;8.238;2023-04-01T16:18:32;12.51;91.41
66213;SHT31;53015;50.046;8.238;2023-04-01T16:21:05;12.48;91.20
66213;SHT31;53015;50.046;8.238;2023-04-01T16:23:37;12.49;90.83
66213;SHT31;53015;50.046;8.238;2023-04-01T16:26:08;12.40;91.22
66213;SHT31;53015;50.046;8.238;2023-04-01T16:28:39;12.37;91.47
66213;SHT31;53015;50.046;8.238;2023-04-01T16:31:08;12.44;91.61
66213;SHT31;53015;50.046;8.238;2023-04-01T16:33:39;12.30;91.25
66213;SHT31;53015;50.046;8.238;2023-04-01T16:36:12;12.16;91.47
66213;SHT31;53015;50.046;8.238;2023-04-01T16:38:42;12.10;91.69
66213;SHT31;53015;50.046;8.238;2023-04-01T16:41:13;12.12;91.47
66213;SHT31;53015;50.046;8.238;2023-04-01T16:43:42;12.12;91.87
66213;SHT31;53015;50.046;8.238;2023-04-01T16:46:27;12.06;92.14
66213;SHT31;53015;50.046;8.238;2023-04-01T16:49:04;12.09;92.42
66213;SHT31;53015;50.046;8.238;2023-04-01T16:51:46;12.07;92.92
66213;SHT31;53015;50.046;8.238;2023-04-01T16:54:17;12.07;93.03
66213;SHT31;53015;50.046;8.238;2023-04-01T16:56:47;12.03;92.83
66213;SHT31;53015;50.046;8.238;2023-04-01T16:59:19;12.17;93.01
66213;SHT31;53015;50.046;8.238;2023-04-01T17:01:52;12.03;93.28
66213;SHT31;53015;50.046;8.238;2023-04-01T17:04:26;12.13;92.79